Time;durP1;ratioP1;P1;durP2;ratioP2;P2;SDS_P1;SDS_P2;PMS_P1;PMS_P2;Temp;Humidity;BMP_temperature;BMP_pressure;BME280_temperature;BME280_humidity;BME280_pressure;Samples;Min_cycle;Max_cycle;Signal;HPM_P1;HPM_P2
2021/10/22 00:02:39;;;;;;;38.70;24.27;;;;;;;10.24;91.71;99967.02;1747968;82;21395;-59
2021/10/22 00:05:45;;;;;;;40.20;23.98;;;;;;;10.23;91.90;99973.54;1748336;82;21352;-59
2021/10/22 00:08:50;;;;;;;36.85;24.98;;;;;;;10.23;92.09;99968.06;1748175;82;21392;-61
2021/10/22 00:11:56;;;;;;;37.88;20.85;;;;;;;10.23;92.26;99970.80;1748279;82;21383;-61
2021/10/22 00:15:02;;;;;;;28.23;18.65;;;;;;;10.23;92.43;99970.80;1748208;82;21391;-60
2021/10/22 00:18:09;;;;;;;29.18;18.02;;;;;;;10.22;92.65;99972.36;1744224;82;21352;-61
2021/10/22 00:21:16;;;;;;;27.87;17.73;;;;;;;10.22;92.86;99981.93;1748033;82;21328;-60
2021/10/22 00:24:23;;;;;;;29.35;19.67;;;;;;;10.21;92.95;99968.76;1747925;82;21352;-59
2021/10/22 00:27:29;;;;;;;29.07;18.62;;;;;;;10.20;93.13;99973.05;1748004;82;21309;-60
2021/10/22 00:30:34;;;;;;;31.33;19.67;;;;;;;10.18;93.28;99960.09;1748020;82;21198;-60
2021/10/22 00:33:40;;;;;;;32.53;21.25;;;;;;;10.18;93.47;99953.26;1747918;82;21423;-61
2021/10/22 00:36:46;;;;;;;31.60;20.17;;;;;;;10.18;93.64;99965.56;1747173;79;21286;-60
2021/10/22 00:39:53;;;;;;;29.90;20.50;;;;;;;10.17;93.79;99967.44;1745932;81;21405;-60
2021/10/22 00:43:00;;;;;;;32.42;19.62;;;;;;;10.17;94.00;99961.97;1745808;82;21574;-60
2021/10/22 00:46:07;;;;;;;32.70;22.22;;;;;;;10.18;94.24;99955.45;1745671;82;21318;-61
2021/10/22 00:49:21;;;;;;;29.07;21.25;;;;;;;10.19;94.45;99958.55;1745839;82;21951;-60
2021/10/22 00:52:31;;;;;;;30.85;21.17;;;;;;;10.19;94.57;99954.44;1745798;82;21677;-60
2021/10/22 00:55:39;;;;;;;26.45;19.23;;;;;;;10.19;94.73;99959.91;1745703;82;21358;-61
2021/10/22 00:58:46;;;;;;;27.65;18.60;;;;;;;10.20;94.86;99960.73;1745471;82;21378;-60
2021/10/22 01:01:51;;;;;;;28.35;17.20;;;;;;;10.18;94.92;99949.16;1745712;82;21326;-60
2021/10/22 01:04:59;;;;;;;29.82;17.55;;;;;;;10.16;94.99;99946.58;1745550;82;21692;-60
2021/10/22 01:08:06;;;;;;;28.95;17.52;;;;;;;10.16;95.14;99951.22;1745553;82;21183;-60
2021/10/22 01:11:12;;;;;;;32.08;20.10;;;;;;;10.14;95.22;99951.41;1745938;82;21697;-60
2021/10/22 01:14:19;;;;;;;35.98;24.95;;;;;;;10.12;95.31;99947.13;1745647;82;21175;-61
2021/10/22 01:17:49;;;;;;;41.55;27.35;;;;;;;10.12;95.48;99945.77;1745586;82;21322;-60
2021/10/22 01:20:56;;;;;;;40.58;27.45;;;;;;;10.11;95.62;99954.51;1745801;82;21227;-61
2021/10/22 01:24:03;;;;;;;39.65;28.00;;;;;;;10.12;95.80;99950.73;1721912;82;21247;-60
2021/10/22 01:27:10;;;;;;;40.03;26.90;;;;;;;10.09;95.86;99949.73;1745774;82;21330;-61
2021/10/22 01:30:17;;;;;;;36.90;27.35;;;;;;;10.09;96.00;99948.36;1745786;82;21322;-60
2021/10/22 01:33:25;;;;;;;44.98;29.55;;;;;;;10.08;96.13;99945.81;1745928;82;21377;-59
2021/10/22 01:36:33;;;;;;;38.80;25.08;;;;;;;10.07;96.23;99950.42;1745719;82;21422;-61
2021/10/22 01:39:39;;;;;;;39.60;26.17;;;;;;;10.06;96.32;99954.67;1740737;81;21289;-60
2021/10/22 01:42:47;;;;;;;36.15;24.30;;;;;;;10.03;96.43;99950.44;1737972;82;21368;-60
2021/10/22 01:45:54;;;;;;;35.08;24.67;;;;;;;10.02;96.47;99963.75;1738628;82;21834;-59
2021/10/22 01:49:01;;;;;;;33.50;23.15;;;;;;;9.99;96.52;99954.55;1737920;82;21285;-60
2021/10/22 01:52:07;;;;;;;35.73;23.90;;;;;;;9.99;96.64;99957.28;1738153;82;22011;-59
2021/10/22 01:55:13;;;;;;;29.72;19.67;;;;;;;9.97;96.76;99952.50;1738738;82;21187;-60
2021/10/22 01:58:19;;;;;;;27.10;18.10;;;;;;;9.95;96.83;99955.96;1737988;82;21435;-61
2021/10/22 02:01:26;;;;;;;24.05;17.32;;;;;;;9.94;96.88;99967.91;1739860;82;21325;-60
2021/10/22 02:04:33;;;;;;;27.93;18.10;;;;;;;9.93;96.94;99958.53;1738650;82;21398;-60
2021/10/22 02:07:39;;;;;;;31.77;18.85;;;;;;;9.91;97.02;99965.55;1737829;82;21175;-59
2021/10/22 02:10:47;;;;;;;26.20;17.95;;;;;;;9.91;97.14;99970.19;1738407;82;21171;-59
2021/10/22 02:13:54;;;;;;;29.20;18.80;;;;;;;9.91;97.21;99964.72;1737917;82;21226;-59
2021/10/22 02:17:00;;;;;;;33.13;19.57;;;;;;;9.89;97.26;99962.17;1737924;82;21195;-59
2021/10/22 02:20:06;;;;;;;29.12;19.50;;;;;;;9.88;97.33;99954.97;1738002;81;21196;-60
2021/10/22 02:23:13;;;;;;;39.23;20.68;;;;;;;9.88;97.41;99959.08;1737911;82;21356;-62
2021/10/22 02:26:20;;;;;;;27.17;18.05;;;;;;;9.88;97.51;99965.91;1738143;82;21360;-59
2021/10/22 02:29:26;;;;;;;25.97;18.05;;;;;;;9.89;97.61;99964.03;1738182;82;21281;-60
2021/10/22 02:32:31;;;;;;;23.90;17.02;;;;;;;9.88;97.65;99975.48;1738073;82;21325;-59
2021/10/22 02:35:38;;;;;;;22.55;16.50;;;;;;;9.88;97.73;99982.31;1738087;82;21238;-61
2021/10/22 02:38:43;;;;;;;28.20;16.00;;;;;;;9.88;97.82;99973.25;1737860;82;21250;-61
2021/10/22 02:41:49;;;;;;;34.03;21.87;;;;;;;9.89;97.89;99980.44;1753664;82;21198;-62
2021/10/22 02:44:54;;;;;;;37.28;23.80;;;;;;;9.87;97.95;99975.16;1753607;81;21206;-62
2021/10/22 02:48:01;;;;;;;48.50;32.70;;;;;;;9.87;98.05;99979.25;1753726;81;21344;-61
2021/10/22 02:51:07;;;;;;;42.73;26.80;;;;;;;9.88;98.13;99974.11;1754034;81;21237;-62
2021/10/22 02:54:12;;;;;;;38.73;21.97;;;;;;;9.86;98.23;99971.23;1753868;81;21368;-62
2021/10/22 02:57:18;;;;;;;32.93;22.55;;;;;;;9.87;98.33;99977.89;1753720;81;21324;-61
2021/10/22 03:00:24;;;;;;;28.50;18.77;;;;;;;9.86;98.39;99985.73;1753766;81;21873;-62
2021/10/22 03:03:32;;;;;;;30.43;20.35;;;;;;;9.88;98.47;99981.45;1753890;81;21356;-61
2021/10/22 03:06:38;;;;;;;32.15;22.00;;;;;;;9.88;98.60;99987.78;1753623;81;21218;-60
2021/10/22 03:09:44;;;;;;;36.60;25.30;;;;;;;9.92;98.70;99993.75;1753975;81;21304;-60
2021/10/22 03:12:52;;;;;;;36.33;25.43;;;;;;;9.93;98.76;99992.20;1754070;81;21332;-60
2021/10/22 03:15:57;;;;;;;30.52;19.12;;;;;;;9.98;98.78;100001.22;1754088;81;21340;-61
2021/10/22 03:19:04;;;;;;;25.02;17.60;;;;;;;10.00;98.78;99994.55;1753810;81;21202;-61
2021/10/22 03:22:09;;;;;;;24.35;16.60;;;;;;;10.02;98.71;100002.03;1753774;81;21375;-62
2021/10/22 03:25:16;;;;;;;26.68;15.35;;;;;;;10.03;98.63;100001.02;1757426;81;21322;-62
2021/10/22 03:28:21;;;;;;;27.15;16.20;;;;;;;10.04;98.49;99992.28;1753799;81;21395;-62
2021/10/22 03:31:29;;;;;;;28.17;19.50;;;;;;;10.03;98.45;99981.02;1754460;81;21332;-62
2021/10/22 03:34:34;;;;;;;28.85;20.85;;;;;;;10.02;98.42;99977.42;1753627;81;21351;-61
2021/10/22 03:37:41;;;;;;;21.87;16.30;;;;;;;10.02;98.41;99967.02;1754129;81;21324;-61
2021/10/22 03:40:46;;;;;;;23.15;14.80;;;;;;;10.00;98.41;99942.59;1750868;80;21440;-61
2021/10/22 03:43:52;;;;;;;22.30;14.70;;;;;;;9.98;98.37;99958.33;1737615;82;21881;-63
2021/10/22 03:46:58;;;;;;;20.35;14.63;;;;;;;9.94;98.34;99977.48;1737726;82;21250;-60
2021/10/22 03:50:04;;;;;;;26.70;16.73;;;;;;;9.92;98.35;99982.81;1737837;82;21314;-59
2021/10/22 03:53:09;;;;;;;31.05;20.35;;;;;;;9.89;98.37;99992.75;1738539;82;21218;-62
2021/10/22 03:56:15;;;;;;;26.75;18.70;;;;;;;9.86;98.39;99991.74;1737768;82;21412;-59
2021/10/22 03:59:22;;;;;;;27.20;19.25;;;;;;;9.83;98.40;100009.34;1737811;82;21246;-60
2021/10/22 04:02:28;;;;;;;30.92;21.80;;;;;;;9.80;98.42;100006.14;1738030;82;21321;-61
2021/10/22 04:05:34;;;;;;;40.23;26.77;;;;;;;9.78;98.47;100010.42;1738165;82;21199;-60
2021/10/22 04:08:40;;;;;;;47.03;32.85;;;;;;;9.76;98.49;100006.14;1728638;82;21238;-60
2021/10/22 04:11:46;;;;;;;43.85;28.47;;;;;;;9.74;98.54;100012.30;1737408;82;21385;-61
2021/10/22 04:14:54;;;;;;;37.13;27.73;;;;;;;9.71;98.60;100006.69;1738158;82;21230;-61
2021/10/22 04:18:01;;;;;;;37.95;28.00;;;;;;;9.71;98.62;100012.16;1727477;82;21254;-61
2021/10/22 04:21:06;;;;;;;37.05;25.52;;;;;;;9.70;98.67;100009.60;1738209;82;21195;-61
2021/10/22 04:24:13;;;;;;;31.62;21.93;;;;;;;9.70;98.70;100012.33;1738121;82;21344;-61
2021/10/22 04:27:18;;;;;;;29.30;19.32;;;;;;;9.70;98.76;100016.44;1738598;82;21206;-60
2021/10/22 04:30:24;;;;;;;27.52;19.60;;;;;;;9.70;98.82;100017.30;1742874;82;21365;-61
2021/10/22 04:33:30;;;;;;;29.00;18.00;;;;;;;9.71;98.87;100016.77;1737696;82;21846;-61
2021/10/22 04:36:38;;;;;;;31.07;20.57;;;;;;;9.73;98.94;100031.97;1738282;82;21333;-60
2021/10/22 04:43:19;;;;;;;45.73;23.00;;;;;;;9.78;99.04;100036.39;1739988;81;21842;-59
2021/10/22 04:46:26;;;;;;;132.70;56.23;;;;;;;9.81;99.04;100037.90;1747762;81;21380;-60
2021/10/22 04:49:32;;;;;;;69.62;32.30;;;;;;;9.83;99.03;100054.98;1747432;82;21233;-61
2021/10/22 04:52:37;;;;;;;42.88;23.92;;;;;;;9.85;99.01;100055.62;1747883;82;21214;-61
2021/10/22 04:55:43;;;;;;;34.23;19.20;;;;;;;9.86;99.00;100069.66;1748224;81;21194;-61
2021/10/22 04:58:50;;;;;;;25.25;15.78;;;;;;;9.88;99.01;100077.14;1746900;82;21261;-62
2021/10/22 05:01:57;;;;;;;26.60;16.82;;;;;;;9.92;99.01;100093.54;1742766;82;21245;-62
2021/10/22 05:05:04;;;;;;;26.73;16.50;;;;;;;9.98;99.05;100090.08;1746049;82;21451;-61
2021/10/22 05:08:08;;;;;;;26.48;15.00;;;;;;;10.05;99.09;100090.55;1746105;82;21327;-61
2021/10/22 05:11:13;;;;;;;44.48;20.10;;;;;;;10.18;99.11;100090.02;1741170;80;21205;-59
2021/10/22 05:14:20;;;;;;;24.50;16.00;;;;;;;10.30;99.06;100092.66;1730638;82;21683;-60
2021/10/22 05:17:28;;;;;;;47.85;25.95;;;;;;;10.43;98.96;100104.70;1717605;83;21316;-63
2021/10/22 05:20:36;;;;;;;26.85;16.52;;;;;;;10.54;98.75;100107.01;1716395;83;21249;-64
2021/10/22 05:23:44;;;;;;;24.57;15.93;;;;;;;10.67;98.56;100111.04;1716427;83;21241;-62
2021/10/22 05:26:51;;;;;;;23.98;15.20;;;;;;;10.76;98.35;100114.04;1742394;82;21320;-63
2021/10/22 05:29:56;;;;;;;26.52;15.75;;;;;;;10.86;98.12;100117.39;1746082;80;21601;-62
2021/10/22 05:33:01;;;;;;;21.40;14.00;;;;;;;10.92;97.83;100127.59;1745356;82;21285;-60
2021/10/22 05:36:06;;;;;;;25.40;15.65;;;;;;;10.94;97.53;100127.73;1746302;81;21352;-58
2021/10/22 05:39:14;;;;;;;20.92;14.53;;;;;;;10.96;97.29;100141.24;1747268;82;21403;-57
2021/10/22 05:42:20;;;;;;;23.35;14.60;;;;;;;10.98;97.10;100140.55;1746966;82;21924;-58
2021/10/22 05:45:27;;;;;;;26.35;16.07;;;;;;;11.00;96.92;100148.94;1744955;82;21217;-61
2021/10/22 05:48:36;;;;;;;25.80;16.65;;;;;;;11.07;96.71;100158.64;1733931;82;21192;-57
2021/10/22 05:51:41;;;;;;;25.10;15.43;;;;;;;11.14;96.53;100154.11;1736851;80;21214;-62
2021/10/22 05:54:48;;;;;;;22.02;14.87;;;;;;;11.23;96.18;100161.20;1740204;80;21231;-58
2021/10/22 05:57:56;;;;;;;24.45;15.05;;;;;;;11.32;95.84;100164.22;1745283;82;21352;-58
2021/10/22 06:01:02;;;;;;;24.67;14.70;;;;;;;11.40;95.43;100160.86;1744598;82;21709;-58
2021/10/22 06:04:09;;;;;;;24.85;15.83;;;;;;;11.50;95.17;100171.05;1744933;82;21355;-57
2021/10/22 06:07:15;;;;;;;21.12;14.15;;;;;;;11.58;94.74;100166.86;1755036;81;21233;-58
2021/10/22 06:10:20;;;;;;;22.32;13.38;;;;;;;11.66;94.35;100170.92;1745838;82;21797;-57
2021/10/22 06:13:26;;;;;;;27.17;16.07;;;;;;;11.74;93.84;100173.57;1746021;82;21201;-57
2021/10/22 06:16:35;;;;;;;21.12;13.85;;;;;;;11.80;93.34;100169.20;1745907;81;21184;-61
2021/10/22 06:19:54;;;;;;;19.62;13.65;;;;;;;11.86;92.99;100185.77;1714378;82;21400;-58
2021/10/22 06:26:17;;;;;;;22.48;15.98;;;;;;;11.95;92.27;100201.11;1663287;86;21224;-57
2021/10/22 06:29:22;;;;;;;24.80;14.90;;;;;;;12.01;91.82;100201.72;1716321;83;21377;-58
2021/10/22 06:32:27;;;;;;;24.32;15.58;;;;;;;12.07;91.40;100198.72;1717311;83;21825;-57
2021/10/22 06:35:32;;;;;;;27.27;15.68;;;;;;;12.14;90.98;100190.58;1718754;83;21354;-58
2021/10/22 06:38:39;;;;;;;26.10;15.72;;;;;;;12.18;90.54;100191.38;1717492;83;21228;-59
2021/10/22 06:41:45;;;;;;;22.30;13.90;;;;;;;12.25;90.08;100197.82;1716835;83;21418;-58
2021/10/22 06:44:50;;;;;;;21.50;14.18;;;;;;;12.34;89.64;100187.56;1716763;83;21377;-59
2021/10/22 06:47:55;;;;;;;22.87;14.30;;;;;;;12.43;89.13;100191.38;1717322;82;21385;-58
2021/10/22 06:51:02;;;;;;;20.77;13.43;;;;;;;12.56;88.67;100187.98;1718299;82;21203;-59
2021/10/22 06:54:08;;;;;;;24.80;13.80;;;;;;;12.70;88.19;100192.57;1736839;80;21401;-58
2021/10/22 06:57:15;;;;;;;20.60;13.30;;;;;;;12.84;87.26;100200.77;1717521;83;21346;-58
2021/10/22 07:00:22;;;;;;;19.25;13.05;;;;;;;12.96;86.11;100203.31;1718292;83;21235;-58
2021/10/22 07:03:37;;;;;;;18.87;12.85;;;;;;;13.10;85.42;100201.57;1666901;84;21295;-58
2021/10/22 07:10:01;;;;;;;21.80;14.53;;;;;;;13.32;83.58;100199.14;1716908;83;21960;-62
2021/10/22 07:13:06;;;;;;;27.20;17.62;;;;;;;13.40;82.47;100197.63;1717422;82;21358;-63
2021/10/22 07:16:12;;;;;;;22.70;15.68;;;;;;;13.43;81.35;100209.09;1695672;82;21215;-62
2021/10/22 07:19:19;;;;;;;24.57;13.13;;;;;;;13.44;80.52;100206.68;1714012;82;21239;-62
2021/10/22 07:22:31;;;;;;;26.02;14.63;;;;;;;13.43;79.73;100208.22;1714655;83;21201;-62
2021/10/22 07:25:37;;;;;;;22.13;13.35;;;;;;;13.41;79.31;100209.80;1651166;86;21212;-62
2021/10/22 07:28:46;;;;;;;18.55;11.35;;;;;;;13.42;78.88;100207.91;1710277;82;21289;-61
2021/10/22 07:31:51;;;;;;;19.92;12.28;;;;;;;13.44;78.38;100210.80;1711082;83;21275;-61
2021/10/22 07:34:59;;;;;;;18.57;11.63;;;;;;;13.49;77.64;100218.45;1704045;83;21764;-61
2021/10/22 07:38:10;;;;;;;19.67;12.18;;;;;;;13.53;76.93;100221.98;1717856;82;21718;-58
2021/10/22 07:41:15;;;;;;;19.90;11.90;;;;;;;13.62;76.56;100230.09;1694011;83;21208;-57
2021/10/22 07:44:25;;;;;;;20.88;11.30;;;;;;;13.66;76.22;100230.00;1709269;82;21366;-56
2021/10/22 07:47:31;;;;;;;17.82;12.40;;;;;;;13.66;75.73;100223.98;1715810;83;21401;-58
2021/10/22 07:50:39;;;;;;;19.65;13.28;;;;;;;13.66;75.35;100221.75;1712702;83;21216;-57
2021/10/22 07:53:46;;;;;;;26.82;16.25;;;;;;;13.68;75.25;100227.91;1714477;82;21216;-58
2021/10/22 07:56:53;;;;;;;22.75;13.78;;;;;;;13.70;75.00;100237.66;1698626;83;21203;-57
2021/10/22 07:59:59;;;;;;;16.85;11.38;;;;;;;13.71;74.95;100234.39;1709851;83;21803;-57
2021/10/22 08:03:05;;;;;;;25.85;13.40;;;;;;;13.73;74.68;100241.92;1714727;83;22227;-58
2021/10/22 08:06:13;;;;;;;22.35;14.60;;;;;;;13.78;74.51;100240.25;1714566;83;21334;-57
2021/10/22 08:09:20;;;;;;;45.75;28.00;;;;;;;13.84;74.30;100235.88;1675948;85;21639;-57
2021/10/22 08:12:28;;;;;;;30.45;17.42;;;;;;;13.90;74.19;100238.67;1686035;85;21203;-58
2021/10/22 08:15:34;;;;;;;26.37;15.25;;;;;;;13.95;73.82;100235.31;1685700;85;21295;-57
2021/10/22 08:18:40;;;;;;;44.30;24.05;;;;;;;13.99;73.70;100230.58;1708738;80;21200;-57
2021/10/22 08:22:25;;;;;;;49.48;24.37;;;;;;;14.05;73.70;100223.44;1708025;84;21272;-57
2021/10/22 08:25:21;;;;;;;28.00;15.83;;;;;;;14.14;73.39;100229.09;1710432;84;21240;-60
2021/10/22 08:28:29;;;;;;;24.25;12.05;;;;;;;14.27;73.00;100231.96;1710411;82;21867;-61
2021/10/22 08:31:39;;;;;;;17.98;11.10;;;;;;;14.45;72.39;100237.77;1709874;84;21376;-61
2021/10/22 08:34:46;;;;;;;16.75;10.58;;;;;;;14.64;71.81;100232.36;1710922;82;21219;-60
2021/10/22 08:37:56;;;;;;;18.40;11.30;;;;;;;14.84;71.02;100233.81;1693949;84;22097;-60
2021/10/22 08:41:03;;;;;;;17.45;10.28;;;;;;;15.06;70.23;100238.13;1706309;83;21220;-59
2021/10/22 08:44:09;;;;;;;21.90;12.35;;;;;;;15.26;69.09;100243.66;1701179;81;21851;-59
2021/10/22 08:47:17;;;;;;;25.12;14.40;;;;;;;15.44;68.33;100244.81;1667417;86;21248;-63
2021/10/22 08:50:29;;;;;;;20.32;12.60;;;;;;;15.62;67.50;100252.46;1667432;86;21269;-62
2021/10/22 08:53:37;;;;;;;17.12;11.93;;;;;;;15.79;66.56;100239.94;1691591;83;21232;-62
2021/10/22 08:56:45;;;;;;;15.95;8.13;;;;;;;15.98;66.02;100244.59;1691667;85;21792;-61
2021/10/22 08:59:58;;;;;;;11.78;8.03;;;;;;;16.16;63.76;100245.62;1690246;83;21267;-61
2021/10/22 09:03:25;;;;;;;13.45;7.22;;;;;;;16.38;61.76;100248.96;1691426;83;21279;-61
2021/10/22 09:06:33;;;;;;;10.18;6.47;;;;;;;16.57;60.11;100243.94;1690915;84;21216;-61
2021/10/22 09:09:40;;;;;;;11.80;7.37;;;;;;;16.76;58.75;100239.42;1688702;83;21236;-60
2021/10/22 09:13:06;;;;;;;13.43;7.33;;;;;;;16.92;58.12;100227.88;1707671;84;21597;-60
2021/10/22 09:16:29;;;;;;;11.45;7.03;;;;;;;17.04;57.29;100221.94;1707435;84;21196;-62
2021/10/22 09:19:43;;;;;;;16.73;7.72;;;;;;;17.17;56.31;100212.19;1708042;80;21867;-60
2021/10/22 09:22:55;;;;;;;9.53;6.25;;;;;;;17.28;55.07;100210.92;1681561;84;21195;-61
2021/10/22 09:26:02;;;;;;;12.70;6.40;;;;;;;17.38;54.75;100222.88;1681249;85;21210;-60
2021/10/22 09:29:11;;;;;;;11.43;6.35;;;;;;;17.48;53.94;100219.13;1685766;84;21858;-60
2021/10/22 09:32:20;;;;;;;7.30;5.08;;;;;;;17.62;53.37;100224.34;1693371;84;21239;-60
2021/10/22 09:35:52;;;;;;;18.10;6.62;;;;;;;17.84;52.58;100215.09;1709185;84;21195;-61
2021/10/22 09:38:58;;;;;;;13.35;6.33;;;;;;;18.01;50.95;100221.77;1699185;84;21736;-61
2021/10/22 09:42:07;;;;;;;11.43;7.42;;;;;;;18.18;50.55;100215.94;1666794;84;21168;-62
2021/10/22 09:45:15;;;;;;;9.95;5.50;;;;;;;18.39;50.17;100215.54;1711857;84;21362;-61
2021/10/22 09:48:37;;;;;;;17.42;6.58;;;;;;;18.57;49.30;100214.14;1709181;84;21903;-63
2021/10/22 09:51:44;;;;;;;13.53;7.08;;;;;;;18.73;48.81;100210.73;1705892;82;21216;-61
2021/10/22 09:54:48;;;;;;;16.23;8.80;;;;;;;18.93;48.36;100215.47;1709051;84;21379;-57
2021/10/22 09:58:07;;;;;;;8.28;6.35;;;;;;;19.11;48.22;100206.27;1709259;84;21204;-58
2021/10/22 10:01:18;;;;;;;17.77;7.62;;;;;;;19.22;46.72;100207.70;1682166;85;21191;-57
2021/10/22 10:04:24;;;;;;;;;;;;;;;19.22;46.31;100211.88;1690638;84;21620;-57
2021/10/22 10:07:31;;;;;;;9.83;6.00;;;;;;;19.20;46.28;100216.80;1710804;84;20217;-57
2021/10/22 10:10:37;;;;;;;10.25;6.65;;;;;;;19.17;46.38;100210.91;1710022;83;21732;-60
2021/10/22 10:13:44;;;;;;;12.98;7.55;;;;;;;19.15;46.13;100211.11;1709972;84;21839;-60
2021/10/22 10:16:52;;;;;;;9.08;5.62;;;;;;;19.17;46.29;100210.34;1710428;84;21203;-62
2021/10/22 10:19:59;;;;;;;9.55;5.08;;;;;;;19.24;45.20;100205.55;1707394;82;21231;-60
2021/10/22 10:23:04;;;;;;;7.67;4.75;;;;;;;19.28;44.89;100205.40;1708523;83;21219;-60
2021/10/22 10:26:35;;;;;;;8.70;4.12;;;;;;;19.28;44.41;100209.56;1709769;83;21226;-60
2021/10/22 10:29:48;;;;;;;7.50;4.28;;;;;;;19.22;43.35;100212.41;1709359;82;21258;-59
2021/10/22 10:32:52;;;;;;;12.05;5.42;;;;;;;19.16;43.18;100210.58;1710629;82;21265;-58
2021/10/22 10:35:59;;;;;;;8.03;4.03;;;;;;;19.11;43.76;100200.19;1707724;84;21204;-59
2021/10/22 10:39:07;;;;;;;10.95;4.92;;;;;;;19.11;43.59;100207.13;1708600;82;21733;-57
2021/10/22 10:42:36;;;;;;;8.60;5.17;;;;;;;19.10;44.11;100212.91;1702002;83;21802;-58
2021/10/22 10:45:47;;;;;;;10.00;5.00;;;;;;;19.11;44.41;100216.84;1690979;84;21735;-59
2021/10/22 10:48:55;;;;;;;9.68;5.25;;;;;;;19.13;44.67;100208.27;1674834;83;21715;-58
2021/10/22 10:52:01;;;;;;;8.75;5.45;;;;;;;19.16;44.83;100211.43;1687357;84;21576;-59
2021/10/22 10:55:27;;;;;;;5.47;3.92;;;;;;;19.16;44.88;100202.25;1704904;83;21259;-59
2021/10/22 10:58:30;;;;;;;6.30;3.70;;;;;;;19.21;44.85;100213.50;1691192;83;21276;-60
2021/10/22 11:01:40;;;;;;;6.92;3.52;;;;;;;19.27;43.78;100218.09;1719525;83;21194;-59
2021/10/22 11:04:55;;;;;;;7.83;4.33;;;;;;;19.24;42.73;100206.94;1654213;85;21237;-59
2021/10/22 11:08:02;;;;;;;7.15;3.62;;;;;;;19.22;43.06;100209.63;1632783;86;21213;-59
2021/10/22 11:11:35;;;;;;;6.20;3.22;;;;;;;19.20;43.09;100200.16;1683833;83;21204;-61
2021/10/22 11:14:52;;;;;;;11.18;3.98;;;;;;;19.23;42.73;100209.95;1653845;86;21253;-60
2021/10/22 11:17:58;;;;;;;5.87;3.55;;;;;;;19.27;43.08;100198.14;1682899;83;21176;-58
2021/10/22 11:21:04;;;;;;;5.17;3.55;;;;;;;19.33;42.58;100205.55;1648539;85;21606;-60
2021/10/22 11:24:13;;;;;;;6.47;3.72;;;;;;;19.30;42.27;100206.02;1701740;84;21184;-59
2021/10/22 11:27:27;;;;;;;8.25;3.00;;;;;;;19.23;41.77;100208.00;1696388;84;21576;-60
2021/10/22 11:30:35;;;;;;;6.97;3.80;;;;;;;19.16;42.06;100204.49;1707084;83;21447;-58
2021/10/22 11:33:40;;;;;;;5.83;3.80;;;;;;;19.10;42.20;100205.97;1706150;83;21267;-59
2021/10/22 11:36:48;;;;;;;5.33;3.45;;;;;;;19.04;42.16;100209.13;1707417;83;21224;-58
2021/10/22 11:39:58;;;;;;;6.37;3.40;;;;;;;19.16;41.95;100200.33;1708065;83;21264;-58
2021/10/22 11:43:15;;;;;;;8.33;3.15;;;;;;;19.43;41.35;100201.33;1707884;84;21260;-59
2021/10/22 11:46:26;;;;;;;7.65;3.22;;;;;;;19.67;40.90;100202.55;1716876;83;21696;-59
2021/10/22 11:49:36;;;;;;;7.85;3.08;;;;;;;19.71;39.59;100207.09;1682060;84;21229;-60
2021/10/22 11:52:42;;;;;;;8.63;3.22;;;;;;;19.56;39.24;100205.30;1650058;86;21858;-59
2021/10/22 11:56:03;;;;;;;5.17;3.30;;;;;;;19.40;39.04;100213.77;1696136;84;21199;-59
2021/10/22 11:59:15;;;;;;;4.33;3.35;;;;;;;19.26;39.60;100208.95;1701586;82;21251;-59
2021/10/22 12:02:22;;;;;;;7.90;3.50;;;;;;;19.09;39.73;100209.28;1716910;83;21187;-61
2021/10/22 12:05:33;;;;;;;5.10;3.30;;;;;;;19.04;39.98;100202.20;1720194;83;21190;-60
2021/10/22 12:08:44;;;;;;;6.87;3.77;;;;;;;19.16;40.01;100205.88;1687702;84;21218;-59
2021/10/22 12:12:09;;;;;;;7.22;3.12;;;;;;;19.33;40.30;100205.55;1671653;85;21224;-58
2021/10/22 12:15:15;;;;;;;9.70;3.80;;;;;;;19.50;39.93;100207.11;1675917;85;21914;-60
2021/10/22 12:18:23;;;;;;;5.33;3.33;;;;;;;19.62;38.89;100205.20;1678151;84;21768;-61
2021/10/22 12:21:38;;;;;;;5.78;3.55;;;;;;;19.70;39.04;100210.94;1687017;85;21212;-59
2021/10/22 12:24:55;;;;;;;9.58;3.92;;;;;;;19.77;38.83;100204.73;1687697;85;21860;-60
2021/10/22 12:28:06;;;;;;;8.23;3.65;;;;;;;19.82;39.16;100199.31;1674017;83;21822;-59
2021/10/22 12:31:18;;;;;;;14.13;4.05;;;;;;;19.91;39.53;100203.42;1707486;84;21194;-59
2021/10/22 12:34:33;;;;;;;9.33;4.42;;;;;;;19.99;39.58;100203.92;1709025;83;21339;-59
2021/10/22 12:37:49;;;;;;;8.05;4.55;;;;;;;20.06;39.55;100203.80;1708623;83;21776;-59
2021/10/22 12:41:03;;;;;;;8.35;3.47;;;;;;;20.11;38.56;100212.23;1708874;83;21338;-60
2021/10/22 12:44:21;;;;;;;7.70;4.85;;;;;;;20.16;38.02;100210.47;1694548;83;21247;-61
2021/10/22 12:47:30;;;;;;;6.95;4.40;;;;;;;20.17;37.41;100218.28;1698041;84;21251;-59
2021/10/22 12:50:41;;;;;;;6.33;4.17;;;;;;;20.13;37.44;100218.41;1696852;83;21184;-61
2021/10/22 12:53:51;;;;;;;16.62;8.50;;;;;;;20.10;37.55;100216.11;1708794;83;21228;-60
2021/10/22 12:57:08;;;;;;;11.03;6.37;;;;;;;20.09;37.63;100211.66;1717962;83;21172;-59
2021/10/22 13:00:28;;;;;;;8.88;4.70;;;;;;;20.06;37.56;100221.30;1708961;84;21326;-60
2021/10/22 13:03:36;;;;;;;8.70;4.15;;;;;;;19.99;37.68;100223.91;1707816;83;21271;-59
2021/10/22 13:07:03;;;;;;;9.65;6.53;;;;;;;19.94;37.91;100225.16;1686785;84;21206;-60
2021/10/22 13:10:45;;;;;;;14.07;5.50;;;;;;;19.93;38.14;100223.48;1687287;85;21263;-60
2021/10/22 13:23:32;;;;;;;15.45;7.45;;;;;;;19.65;39.23;100237.19;1662477;82;21223;-59
2021/10/22 13:26:41;;;;;;;11.28;6.30;;;;;;;19.59;39.39;100240.92;1663323;86;21875;-60
2021/10/22 13:29:52;;;;;;;8.88;5.03;;;;;;;19.53;39.50;100241.88;1679063;83;21287;-60
2021/10/22 13:32:54;;;;;;;9.53;5.00;;;;;;;19.38;39.79;100238.14;1691294;85;21259;-59
2021/10/22 13:36:04;;;;;;;7.58;5.15;;;;;;;19.24;40.12;100241.63;1690963;85;21212;-59
2021/10/22 13:39:10;;;;;;;10.23;6.28;;;;;;;19.11;40.28;100251.52;1690862;83;21271;-60
2021/10/22 13:42:16;;;;;;;8.88;6.17;;;;;;;18.96;40.58;100244.70;1690635;85;21732;-60
2021/10/22 13:45:22;;;;;;;9.63;5.45;;;;;;;18.82;40.94;100242.61;1691505;85;21216;-59
2021/10/22 13:48:27;;;;;;;11.75;6.12;;;;;;;18.68;41.33;100233.33;1691123;85;21676;-62
2021/10/22 13:51:35;;;;;;;9.30;6.10;;;;;;;18.56;41.62;100235.16;1691249;85;21200;-59
2021/10/22 13:54:42;;;;;;;12.50;6.65;;;;;;;18.47;41.93;100247.64;1691493;85;21757;-59
2021/10/22 13:57:50;;;;;;;12.30;7.72;;;;;;;18.37;42.36;100248.67;1691010;85;21224;-59
2021/10/22 14:00:59;;;;;;;16.77;8.88;;;;;;;18.27;42.59;100250.59;1690485;85;21291;-59
2021/10/22 14:04:04;;;;;;;20.97;9.43;;;;;;;18.17;42.97;100246.09;1691027;85;21574;-59
2021/10/22 14:07:09;;;;;;;18.23;8.78;;;;;;;18.05;43.24;100246.54;1691312;83;21248;-59
2021/10/22 14:10:17;;;;;;;12.85;7.15;;;;;;;17.97;43.50;100248.73;1689953;85;21343;-60
2021/10/22 14:13:29;;;;;;;15.05;7.30;;;;;;;17.87;43.83;100245.09;1689619;83;21276;-59
2021/10/22 14:23:35;;;;;;;14.58;8.15;;;;;;;17.56;44.68;100250.16;1663861;85;21233;-59
2021/10/22 14:29:49;;;;;;;12.43;6.28;;;;;;;17.33;45.25;100253.16;1672286;84;21757;-59
2021/10/22 14:32:56;;;;;;;17.12;9.78;;;;;;;17.18;45.63;100251.22;1675316;84;21284;-59
2021/10/22 14:36:00;;;;;;;20.52;9.45;;;;;;;17.06;45.95;100259.36;1674666;84;21271;-59
2021/10/22 14:39:06;;;;;;;16.27;8.55;;;;;;;16.94;46.23;100264.42;1674298;84;21229;-59
2021/10/22 14:42:12;;;;;;;13.48;7.42;;;;;;;16.81;46.51;100268.66;1674787;85;21189;-59
2021/10/22 14:48:34;;;;;;;13.40;7.00;;;;;;;16.60;47.13;100273.08;1652359;85;21233;-59
2021/10/22 14:54:58;;;;;;;18.35;10.58;;;;;;;16.37;47.81;100268.00;1674242;85;21861;-59
2021/10/22 14:58:03;;;;;;;21.50;10.00;;;;;;;16.26;48.09;100277.80;1674529;84;21316;-61
2021/10/22 15:01:09;;;;;;;29.55;17.05;;;;;;;16.15;48.36;100281.22;1674629;85;21209;-58
2021/10/22 15:04:15;;;;;;;49.27;28.05;;;;;;;16.06;48.69;100290.77;1674377;84;21236;-59